createdAt,value
2023-04-18T00:04:15.074Z,8.66
2023-04-18T00:09:17.329Z,8.67
2023-04-18T00:14:21.007Z,8.69
2023-04-18T00:19:23.626Z,8.70
2023-04-18T00:24:25.796Z,8.71
2023-04-18T00:29:28.049Z,8.73
2023-04-18T00:34:29.979Z,8.75
2023-04-18T00:39:31.767Z,8.76
2023-04-18T00:44:33.921Z,8.78
2023-04-18T00:49:35.827Z,8.77
2023-04-18T00:54:39.015Z,8.76
2023-04-18T00:59:41.341Z,8.74
2023-04-18T01:04:44.093Z,8.73
2023-04-18T01:09:46.342Z,8.72
2023-04-18T01:14:48.289Z,8.72
2023-04-18T01:19:51.576Z,8.73
2023-04-18T01:24:53.672Z,8.73
2023-04-18T01:29:55.661Z,8.73
2023-04-18T01:34:57.735Z,8.73
2023-04-18T01:40:00.134Z,8.73
2023-04-18T01:45:02.632Z,8.72
2023-04-18T01:50:05.133Z,8.72
2023-04-18T01:55:07.637Z,8.72
2023-04-18T02:00:11.478Z,8.71
2023-04-18T02:05:19.278Z,8.69
2023-04-18T02:10:21.272Z,8.68
2023-04-18T02:15:24.624Z,8.69
2023-04-18T02:20:28.579Z,8.68
2023-04-18T02:25:31.126Z,8.69
2023-04-18T02:30:32.950Z,8.70
2023-04-18T02:35:38.564Z,8.71
2023-04-18T02:40:40.649Z,8.71
2023-04-18T02:45:43.030Z,8.70
2023-04-18T02:50:45.062Z,8.70
2023-04-18T02:55:47.588Z,8.72
2023-04-18T03:00:53.149Z,8.73
2023-04-18T03:06:15.951Z,8.70
2023-04-18T03:11:18.175Z,8.68
2023-04-18T03:16:20.669Z,8.66
2023-04-18T03:21:24.083Z,8.64
2023-04-18T03:26:26.911Z,8.62
2023-04-18T03:31:29.418Z,8.59
2023-04-18T03:36:31.662Z,8.60
2023-04-18T03:41:34.118Z,8.63
2023-04-18T03:46:37.749Z,8.67
2023-04-18T03:51:48.072Z,8.70
2023-04-18T03:56:50.582Z,8.72
2023-04-18T04:01:53.575Z,8.74
2023-04-18T04:06:56.027Z,8.76
2023-04-18T04:11:57.877Z,8.79
2023-04-18T04:17:01.122Z,8.82
2023-04-18T04:22:04.019Z,8.83
2023-04-18T04:27:08.192Z,8.85
2023-04-18T04:32:11.035Z,8.88
2023-04-18T04:37:19.808Z,8.91
2023-04-18T04:42:32.373Z,8.95
2023-04-18T04:47:40.361Z,9.01
2023-04-18T04:52:42.755Z,9.07
2023-04-18T04:57:45.659Z,9.17
2023-04-18T05:03:00.106Z,9.25
2023-04-18T05:08:03.110Z,9.30
2023-04-18T05:13:05.513Z,9.36
2023-04-18T05:18:07.701Z,9.43
2023-04-18T05:23:10.081Z,9.49
2023-04-18T05:28:11.980Z,9.55
2023-04-18T05:33:13.853Z,9.61
2023-04-18T05:38:16.925Z,9.67
2023-04-18T05:43:19.787Z,9.78
2023-04-18T05:48:23.469Z,9.92
2023-04-18T05:53:25.806Z,10.05
2023-04-18T05:58:28.929Z,10.20
2023-04-18T06:03:30.891Z,10.32
2023-04-18T06:08:33.316Z,10.44
2023-04-18T06:13:37.385Z,10.55
2023-04-18T06:18:39.631Z,10.65
2023-04-18T06:23:41.682Z,10.70
2023-04-18T06:28:43.825Z,10.79
2023-04-18T06:33:45.629Z,10.90
2023-04-18T06:38:47.731Z,11.10
2023-04-18T06:44:02.086Z,11.22
2023-04-18T06:49:06.119Z,11.33
2023-04-18T06:54:08.091Z,11.52
2023-04-18T06:59:10.352Z,11.71
2023-04-18T07:04:12.643Z,11.89
2023-04-18T07:09:14.916Z,12.09
2023-04-18T07:14:17.008Z,12.27
2023-04-18T07:19:19.267Z,12.54
2023-04-18T07:24:23.570Z,12.83
2023-04-18T07:29:25.632Z,13.02
2023-04-18T07:34:30.005Z,13.14
2023-04-18T07:39:35.962Z,13.18
2023-04-18T07:44:37.964Z,13.25
2023-04-18T07:49:40.101Z,13.31
2023-04-18T07:54:41.987Z,13.46
2023-04-18T07:59:44.054Z,13.74
2023-04-18T08:04:47.480Z,13.97
2023-04-18T08:09:49.678Z,14.07
2023-04-18T08:14:51.554Z,14.07
2023-04-18T08:19:53.556Z,13.97
2023-04-18T08:25:04.288Z,13.90
2023-04-18T08:30:09.850Z,13.93
2023-04-18T08:35:11.846Z,13.98
2023-04-18T08:40:14.622Z,14.07
2023-04-18T08:45:18.691Z,14.16
2023-04-18T08:50:21.634Z,14.23
2023-04-18T08:55:23.630Z,14.31
2023-04-18T09:00:27.289Z,14.33
2023-04-18T09:05:29.838Z,14.42
2023-04-18T09:10:33.913Z,14.46
2023-04-18T09:15:35.864Z,14.53
2023-04-18T09:20:43.828Z,14.66
2023-04-18T09:25:48.140Z,14.85
2023-04-18T09:30:54.389Z,15.09
2023-04-18T09:35:57.339Z,15.30
2023-04-18T09:41:11.738Z,15.32
2023-04-18T09:46:14.650Z,15.18
2023-04-18T09:51:18.740Z,15.09
2023-04-18T09:56:32.722Z,15.08
2023-04-18T10:01:35.880Z,15.13
2023-04-18T10:06:39.902Z,15.27
2023-04-18T10:11:42.366Z,15.30
2023-04-18T10:16:49.958Z,15.34
2023-04-18T10:21:58.459Z,15.51
2023-04-18T10:27:00.328Z,15.60
2023-04-18T10:32:07.195Z,15.71
2023-04-18T10:37:09.461Z,15.75
2023-04-18T10:42:11.617Z,15.84
2023-04-18T10:47:19.824Z,15.86
2023-04-18T10:52:22.022Z,15.87
2023-04-18T10:57:24.028Z,15.83
2023-04-18T11:02:30.158Z,15.93
2023-04-18T11:07:36.992Z,15.94
2023-04-18T11:12:40.830Z,15.96
2023-04-18T11:17:44.207Z,15.95
2023-04-18T11:22:51.456Z,15.96
2023-04-18T11:27:55.905Z,16.06
2023-04-18T11:32:58.043Z,16.30
2023-04-18T11:38:00.936Z,16.42
2023-04-18T11:43:05.876Z,16.55
2023-04-18T11:48:07.765Z,16.56
2023-04-18T11:53:10.568Z,16.49
2023-04-18T11:58:12.776Z,16.49
2023-04-18T12:03:17.089Z,16.53
2023-04-18T12:08:20.643Z,16.59
2023-04-18T12:13:27.497Z,16.65
2023-04-18T12:18:30.021Z,16.71
2023-04-18T12:23:35.978Z,16.84
2023-04-18T12:28:38.809Z,17.01
2023-04-18T12:33:41.234Z,17.14
2023-04-18T12:38:43.291Z,17.34
2023-04-18T12:43:45.434Z,17.51
2023-04-18T12:48:47.519Z,17.66
2023-04-18T12:53:49.718Z,17.67
2023-04-18T12:58:51.834Z,17.68
2023-04-18T13:04:08.325Z,17.81
2023-04-18T13:09:13.450Z,18.06
2023-04-18T13:14:16.267Z,18.34
2023-04-18T13:19:18.090Z,18.47
2023-04-18T13:24:20.401Z,18.50
2023-04-18T13:29:22.689Z,18.37
2023-04-18T13:34:24.775Z,18.39
2023-04-18T13:39:26.596Z,18.44
2023-04-18T13:44:29.501Z,18.32
2023-04-18T13:49:32.678Z,18.27
2023-04-18T13:54:35.456Z,18.31
2023-04-18T13:59:42.438Z,18.41
2023-04-18T14:04:44.931Z,18.44
2023-04-18T14:09:48.391Z,18.45
2023-04-18T14:14:50.432Z,18.39
2023-04-18T14:20:11.696Z,18.34
2023-04-18T14:25:14.332Z,18.28
2023-04-18T14:30:16.749Z,18.23
2023-04-18T14:35:19.042Z,18.30
2023-04-18T14:40:22.798Z,18.27
2023-04-18T14:45:25.680Z,18.19
2023-04-18T14:50:27.810Z,18.11
2023-04-18T14:55:30.179Z,18.04
2023-04-18T15:00:34.011Z,17.88
2023-04-18T15:05:39.175Z,17.65
2023-04-18T15:10:46.561Z,17.51
2023-04-18T15:15:56.908Z,17.42
2023-04-18T15:20:59.723Z,17.46
2023-04-18T15:26:01.887Z,17.52
2023-04-18T15:31:06.173Z,17.41
2023-04-18T15:36:09.213Z,17.16
2023-04-18T15:41:11.281Z,16.90
2023-04-18T15:46:14.214Z,16.67
2023-04-18T15:51:16.098Z,16.44
2023-04-18T15:56:18.371Z,16.25
2023-04-18T16:01:20.956Z,16.07
2023-04-18T16:06:23.503Z,15.92
2023-04-18T16:11:29.039Z,15.77
2023-04-18T16:16:31.092Z,15.63
2023-04-18T16:21:33.108Z,15.56
2023-04-18T16:26:35.166Z,15.48
2023-04-18T16:31:37.335Z,15.38
2023-04-18T16:36:39.801Z,15.26
2023-04-18T16:41:41.816Z,15.11
2023-04-18T16:46:44.409Z,14.95
2023-04-18T16:51:46.707Z,14.81
2023-04-18T16:56:49.216Z,14.66
2023-04-18T17:01:51.629Z,14.40
2023-04-18T17:06:53.789Z,14.14
2023-04-18T17:11:55.724Z,13.93
2023-04-18T17:16:57.866Z,13.78
2023-04-18T17:22:00.389Z,13.67
2023-04-18T17:27:02.536Z,13.58
2023-04-18T17:32:05.210Z,13.47
2023-04-18T17:37:07.481Z,13.36
2023-04-18T17:42:09.709Z,13.25
2023-04-18T17:47:11.935Z,13.16
2023-04-18T17:52:14.024Z,13.08
2023-04-18T17:57:16.723Z,12.99
2023-04-18T18:02:19.409Z,12.91
2023-04-18T18:07:21.533Z,12.84
2023-04-18T18:12:23.428Z,12.76
2023-04-18T18:17:25.526Z,12.70
2023-04-18T18:22:28.270Z,12.65
2023-04-18T18:27:30.263Z,12.58
2023-04-18T18:32:32.472Z,12.51
2023-04-18T18:37:34.554Z,12.44
2023-04-18T18:42:36.746Z,12.38
2023-04-18T18:47:40.011Z,12.31
2023-04-18T18:52:43.250Z,12.26
2023-04-18T18:57:45.539Z,12.20
2023-04-18T19:02:47.789Z,12.12
2023-04-18T19:07:51.490Z,12.03
2023-04-18T19:12:53.468Z,11.94
2023-04-18T19:17:59.118Z,11.84
2023-04-18T19:23:01.032Z,11.69
2023-04-18T19:28:06.972Z,11.56
2023-04-18T19:33:09.685Z,11.39
2023-04-18T19:38:11.880Z,11.20
2023-04-18T19:43:13.872Z,11.05
2023-04-18T19:48:16.245Z,10.93
2023-04-18T19:53:19.223Z,10.84
2023-04-18T19:58:45.113Z,10.80
2023-04-18T20:03:48.805Z,10.78
2023-04-18T20:08:51.315Z,10.77
2023-04-18T20:13:56.769Z,10.78
2023-04-18T20:18:58.857Z,10.78
2023-04-18T20:24:01.535Z,10.79
2023-04-18T20:29:04.024Z,10.81
2023-04-18T20:34:06.993Z,10.82
2023-04-18T20:39:09.490Z,10.84
2023-04-18T20:44:13.851Z,10.84
2023-04-18T20:49:16.557Z,10.85
2023-04-18T20:54:18.849Z,10.86
2023-04-18T20:59:21.490Z,10.87
2023-04-18T21:04:23.934Z,10.89
2023-04-18T21:09:26.688Z,10.90
2023-04-18T21:14:36.058Z,10.89
2023-04-18T21:19:38.213Z,10.90
2023-04-18T21:24:40.667Z,10.88
2023-04-18T21:29:42.921Z,10.87
2023-04-18T21:34:44.986Z,10.86
2023-04-18T21:39:47.237Z,10.86
2023-04-18T21:44:49.637Z,10.86
2023-04-18T21:49:56.679Z,10.86
2023-04-18T21:54:59.962Z,10.82
2023-04-18T22:00:02.440Z,10.79
2023-04-18T22:05:13.389Z,10.78
2023-04-18T22:10:16.556Z,10.76
2023-04-18T22:15:18.359Z,10.75
2023-04-18T22:20:21.554Z,10.73
2023-04-18T22:25:23.341Z,10.71
2023-04-18T22:30:25.575Z,10.69
2023-04-18T22:35:27.945Z,10.67
2023-04-18T22:40:29.991Z,10.64
2023-04-18T22:45:33.794Z,10.59
2023-04-18T22:50:37.913Z,10.56
2023-04-18T22:55:44.352Z,10.53
2023-04-18T23:00:46.824Z,10.52
2023-04-18T23:05:48.869Z,10.49
2023-04-18T23:10:53.206Z,10.48
2023-04-18T23:16:01.403Z,10.47
2023-04-18T23:21:03.700Z,10.44
2023-04-18T23:26:13.301Z,10.41
2023-04-18T23:31:15.625Z,10.36
2023-04-18T23:36:17.758Z,10.32
2023-04-18T23:41:20.422Z,10.29
2023-04-18T23:46:22.884Z,10.25
2023-04-18T23:51:27.777Z,10.22
2023-04-18T23:56:29.803Z,10.18
